Time;durP1;ratioP1;P1;durP2;ratioP2;P2;SDS_P1;SDS_P2;PMS_P1;PMS_P2;Temp;Humidity;BMP_temperature;BMP_pressure;BME280_temperature;BME280_humidity;BME280_pressure;Samples;Min_cycle;Max_cycle;Signal;HPM_P1;HPM_P2
2022/10/14 00:02:01;;;;;;;;;;;12.20;99.90;;;;;;5147374;27;19920;-72
2022/10/14 00:04:28;;;;;;;;;;;12.20;99.90;;;;;;5147135;27;20199;-71
2022/10/14 00:06:57;;;;;;;;;;;12.20;99.90;;;;;;5146624;27;20058;-71
2022/10/14 00:09:23;;;;;;;;;;;12.20;99.90;;;;;;5146432;27;19919;-72
2022/10/14 00:11:50;;;;;;;;;;;12.20;99.90;;;;;;5147238;27;19926;-71
2022/10/14 00:14:18;;;;;;;;;;;12.20;99.90;;;;;;5145595;27;19919;-71
2022/10/14 00:16:45;;;;;;;;;;;12.20;99.90;;;;;;5128432;27;20215;-72
2022/10/14 00:19:12;;;;;;;;;;;12.20;99.90;;;;;;5126450;28;19962;-72
2022/10/14 00:21:40;;;;;;;;;;;12.20;99.90;;;;;;5126359;28;19920;-71
2022/10/14 00:24:08;;;;;;;;;;;12.20;99.90;;;;;;5126545;28;19942;-71
2022/10/14 00:26:36;;;;;;;;;;;12.20;99.90;;;;;;5126433;27;20225;-72
2022/10/14 00:29:04;;;;;;;;;;;12.10;99.90;;;;;;5140664;27;19919;-71
2022/10/14 00:31:31;;;;;;;;;;;12.10;99.90;;;;;;5146749;27;19919;-71
2022/10/14 00:33:57;;;;;;;;;;;12.20;99.90;;;;;;5146955;27;19920;-71
2022/10/14 00:36:24;;;;;;;;;;;12.20;99.90;;;;;;5131638;27;19984;-72
2022/10/14 00:38:52;;;;;;;;;;;12.10;99.90;;;;;;5126302;28;19926;-71
2022/10/14 00:41:21;;;;;;;;;;;12.20;99.90;;;;;;5126117;28;20308;-72
2022/10/14 00:43:52;;;;;;;;;;;12.20;99.90;;;;;;5127442;27;20112;-71
2022/10/14 00:46:19;;;;;;;;;;;12.20;99.90;;;;;;5138964;27;19926;-72
2022/10/14 00:48:45;;;;;;;;;;;12.20;99.90;;;;;;5146632;27;19954;-71
2022/10/14 00:51:12;;;;;;;;;;;12.20;99.90;;;;;;5146630;27;19925;-71
2022/10/14 00:53:39;;;;;;;;;;;12.20;99.90;;;;;;5146708;27;19987;-70
2022/10/14 00:56:07;;;;;;;;;;;12.20;99.90;;;;;;5134416;27;19920;-71
2022/10/14 00:58:35;;;;;;;;;;;12.10;99.90;;;;;;5138566;27;19926;-71
2022/10/14 01:01:02;;;;;;;;;;;12.20;99.90;;;;;;5146530;27;19919;-71
2022/10/14 01:03:28;;;;;;;;;;;12.20;99.90;;;;;;5140592;27;19990;-71
2022/10/14 01:06:01;;;;;;;;;;;12.20;99.90;;;;;;5125303;28;20108;-72
2022/10/14 01:08:30;;;;;;;;;;;12.20;99.90;;;;;;5125587;28;19942;-70
2022/10/14 01:11:00;;;;;;;;;;;12.30;99.90;;;;;;5125468;28;19919;-70
2022/10/14 01:13:30;;;;;;;;;;;12.30;99.90;;;;;;5138663;27;20111;-71
2022/10/14 01:16:04;;;;;;;;;;;12.30;99.90;;;;;;5125040;28;20203;-71
2022/10/14 01:18:43;;;;;;;;;;;12.30;99.90;;;;;;5125524;28;19987;-71
2022/10/14 01:21:17;;;;;;;;;;;12.30;99.90;;;;;;5125190;28;19926;-70
2022/10/14 01:23:51;;;;;;;;;;;12.30;99.90;;;;;;5130920;27;19919;-70
2022/10/14 01:26:28;;;;;;;;;;;12.30;99.90;;;;;;5143153;27;20107;-71
2022/10/14 01:29:00;;;;;;;;;;;12.30;99.90;;;;;;5125148;28;19926;-71
2022/10/14 01:31:30;;;;;;;;;;;12.30;99.90;;;;;;5125131;28;20126;-70
2022/10/14 01:33:58;;;;;;;;;;;12.30;99.90;;;;;;5132627;27;19926;-70
2022/10/14 01:36:28;;;;;;;;;;;12.40;99.90;;;;;;5145149;27;20249;-70
2022/10/14 01:38:56;;;;;;;;;;;12.30;99.90;;;;;;5145571;27;19920;-70
2022/10/14 01:41:26;;;;;;;;;;;12.30;99.90;;;;;;5136094;27;20199;-70
2022/10/14 01:43:53;;;;;;;;;;;12.30;99.90;;;;;;5131764;27;19926;-71
2022/10/14 01:46:21;;;;;;;;;;;12.30;99.90;;;;;;5143451;27;19920;-70
2022/10/14 01:48:52;;;;;;;;;;;12.30;99.90;;;;;;5145239;27;19961;-71
2022/10/14 01:51:28;;;;;;;;;;;12.30;99.90;;;;;;5144876;27;20258;-71
2022/10/14 01:53:57;;;;;;;;;;;12.30;99.90;;;;;;5145894;27;20012;-70
2022/10/14 01:56:24;;;;;;;;;;;12.30;99.90;;;;;;5145353;27;20215;-70
2022/10/14 01:58:52;;;;;;;;;;;12.30;99.90;;;;;;5130696;27;19920;-70
2022/10/14 02:01:27;;;;;;;;;;;12.30;99.90;;;;;;5124688;28;19926;-71
2022/10/14 02:03:55;;;;;;;;;;;12.40;99.90;;;;;;5124847;28;19919;-70
2022/10/14 02:06:25;;;;;;;;;;;12.30;99.90;;;;;;5124882;28;19919;-71
2022/10/14 02:08:57;;;;;;;;;;;12.30;99.90;;;;;;5124845;28;19919;-71
2022/10/14 02:11:24;;;;;;;;;;;12.30;99.90;;;;;;5125025;28;20203;-71
2022/10/14 02:13:58;;;;;;;;;;;12.40;99.90;;;;;;5124730;28;19926;-71
2022/10/14 02:16:27;;;;;;;;;;;12.40;99.90;;;;;;5123958;28;19919;-71
2022/10/14 02:19:00;;;;;;;;;;;12.40;99.90;;;;;;5124956;28;19926;-71
2022/10/14 02:21:30;;;;;;;;;;;12.30;99.90;;;;;;5124994;28;19983;-71
2022/10/14 02:23:59;;;;;;;;;;;12.30;99.90;;;;;;5124652;28;19920;-72
2022/10/14 02:26:26;;;;;;;;;;;12.30;99.90;;;;;;5124322;28;19928;-71
2022/10/14 02:28:55;;;;;;;;;;;12.30;99.90;;;;;;5124913;28;19919;-72
2022/10/14 02:31:22;;;;;;;;;;;12.30;99.90;;;;;;5124718;28;19935;-71
2022/10/14 02:33:51;;;;;;;;;;;12.30;99.90;;;;;;5124384;28;19919;-71
2022/10/14 02:36:22;;;;;;;;;;;12.30;99.90;;;;;;5123369;28;19919;-72
2022/10/14 02:38:50;;;;;;;;;;;12.30;99.90;;;;;;5124484;28;19919;-71
2022/10/14 02:41:18;;;;;;;;;;;12.20;99.90;;;;;;5124669;28;19926;-71
2022/10/14 02:43:46;;;;;;;;;;;12.20;99.90;;;;;;5124097;28;20180;-71
2022/10/14 02:46:12;;;;;;;;;;;12.30;99.90;;;;;;5124108;28;19986;-71
2022/10/14 02:48:39;;;;;;;;;;;12.20;99.90;;;;;;5124426;28;20229;-71
2022/10/14 02:51:05;;;;;;;;;;;12.20;99.90;;;;;;5124646;28;19986;-71
2022/10/14 02:53:33;;;;;;;;;;;12.30;99.90;;;;;;5124417;28;19920;-70
2022/10/14 02:56:00;;;;;;;;;;;12.20;99.90;;;;;;5124200;28;19951;-70
2022/10/14 02:58:27;;;;;;;;;;;12.20;99.90;;;;;;5124008;28;19983;-71
2022/10/14 03:00:53;;;;;;;;;;;12.20;99.90;;;;;;5124458;28;19986;-71
2022/10/14 03:03:20;;;;;;;;;;;12.20;99.90;;;;;;5123943;28;19919;-70
2022/10/14 03:05:47;;;;;;;;;;;12.20;99.90;;;;;;5124159;28;19955;-70
2022/10/14 03:08:14;;;;;;;;;;;12.20;99.90;;;;;;5124423;28;19982;-71
2022/10/14 03:10:45;;;;;;;;;;;12.10;99.90;;;;;;5124419;28;19946;-71
2022/10/14 03:13:11;;;;;;;;;;;12.10;99.90;;;;;;5124283;28;19919;-71
2022/10/14 03:15:38;;;;;;;;;;;12.10;99.90;;;;;;5123837;28;19919;-71
2022/10/14 03:18:05;;;;;;;;;;;12.10;99.90;;;;;;5124425;28;20191;-71
2022/10/14 03:20:31;;;;;;;;;;;12.10;99.90;;;;;;5124335;28;20192;-71
2022/10/14 03:22:58;;;;;;;;;;;12.00;99.90;;;;;;5124221;28;19986;-70
2022/10/14 03:25:24;;;;;;;;;;;12.10;99.90;;;;;;5140812;28;19991;-70
2022/10/14 03:27:53;;;;;;;;;;;12.00;99.90;;;;;;5148492;27;20111;-71
2022/10/14 03:30:19;;;;;;;;;;;12.10;99.90;;;;;;5148464;27;19982;-70
2022/10/14 03:32:46;;;;;;;;;;;12.10;99.90;;;;;;5148709;27;19941;-71
2022/10/14 03:35:12;;;;;;;;;;;12.10;99.90;;;;;;5142255;27;19926;-70
2022/10/14 03:37:39;;;;;;;;;;;12.10;99.90;;;;;;5127801;28;19919;-70
2022/10/14 03:40:06;;;;;;;;;;;12.00;99.90;;;;;;5128060;28;19919;-70
2022/10/14 03:42:33;;;;;;;;;;;12.10;99.90;;;;;;5127897;28;20118;-71
2022/10/14 03:45:01;;;;;;;;;;;12.10;99.90;;;;;;5140224;27;19925;-70
2022/10/14 03:47:27;;;;;;;;;;;12.10;99.90;;;;;;5148500;27;19926;-70
2022/10/14 03:49:54;;;;;;;;;;;12.10;99.90;;;;;;5148464;27;19919;-70
2022/10/14 03:52:20;;;;;;;;;;;12.20;99.90;;;;;;5148339;27;19920;-70
2022/10/14 03:54:47;;;;;;;;;;;12.10;99.90;;;;;;5136363;27;19926;-70
2022/10/14 03:57:14;;;;;;;;;;;12.20;99.90;;;;;;5127663;28;19986;-70
2022/10/14 03:59:41;;;;;;;;;;;12.10;99.90;;;;;;5133517;27;19919;-70
2022/10/14 04:02:09;;;;;;;;;;;12.10;99.90;;;;;;5147953;27;19937;-70
2022/10/14 04:04:35;;;;;;;;;;;12.10;99.90;;;;;;5147155;27;20088;-70
2022/10/14 04:07:02;;;;;;;;;;;12.00;99.90;;;;;;5148064;27;19941;-71
2022/10/14 04:09:28;;;;;;;;;;;12.10;99.90;;;;;;5148050;27;19926;-70
2022/10/14 04:11:55;;;;;;;;;;;12.10;99.90;;;;;;5147925;27;20183;-70
2022/10/14 04:14:22;;;;;;;;;;;12.10;99.90;;;;;;5147666;27;19962;-72
2022/10/14 04:16:49;;;;;;;;;;;12.10;99.90;;;;;;5147665;27;19942;-70
2022/10/14 04:19:17;;;;;;;;;;;12.10;99.90;;;;;;5147819;27;19925;-70
2022/10/14 04:21:44;;;;;;;;;;;12.00;99.90;;;;;;5147686;27;19942;-71
2022/10/14 04:24:11;;;;;;;;;;;12.10;99.90;;;;;;5146862;27;19920;-71
2022/10/14 04:26:38;;;;;;;;;;;12.10;99.90;;;;;;5147400;27;19920;-70
2022/10/14 04:29:04;;;;;;;;;;;12.00;99.90;;;;;;5147616;27;20205;-70
2022/10/14 04:31:43;;;;;;;;;;;12.10;99.90;;;;;;5146497;27;19982;-71
2022/10/14 04:34:10;;;;;;;;;;;12.00;99.90;;;;;;5147524;27;19919;-71
2022/10/14 04:36:38;;;;;;;;;;;12.10;99.90;;;;;;5147000;27;19926;-71
2022/10/14 04:39:04;;;;;;;;;;;12.00;99.90;;;;;;5146293;27;19923;-71
2022/10/14 04:41:37;;;;;;;;;;;12.00;99.90;;;;;;5146743;27;19924;-71
2022/10/14 04:44:04;;;;;;;;;;;12.00;99.90;;;;;;5147383;27;19919;-71
2022/10/14 04:46:31;;;;;;;;;;;12.00;99.90;;;;;;5136539;27;19920;-71
2022/10/14 04:48:57;;;;;;;;;;;12.00;99.90;;;;;;5126365;28;19919;-71
2022/10/14 04:51:24;;;;;;;;;;;12.00;99.90;;;;;;5126746;28;19926;-70
2022/10/14 04:53:52;;;;;;;;;;;12.10;99.90;;;;;;5126417;28;19920;-71
2022/10/14 04:56:19;;;;;;;;;;;12.10;99.90;;;;;;5126042;28;19920;-71
2022/10/14 04:58:46;;;;;;;;;;;12.00;99.90;;;;;;5126525;28;20059;-71
2022/10/14 05:01:12;;;;;;;;;;;12.00;99.90;;;;;;5126506;28;19920;-71
2022/10/14 05:03:39;;;;;;;;;;;12.00;99.90;;;;;;5126561;28;20115;-71
2022/10/14 05:06:12;;;;;;;;;;;12.10;99.90;;;;;;5125448;28;19982;-72
2022/10/14 05:08:38;;;;;;;;;;;12.00;99.90;;;;;;5126666;28;19920;-71
2022/10/14 05:11:06;;;;;;;;;;;12.10;99.90;;;;;;5126343;28;19962;-71
2022/10/14 05:13:33;;;;;;;;;;;12.10;99.90;;;;;;5125869;28;19920;-71
2022/10/14 05:16:01;;;;;;;;;;;12.10;99.90;;;;;;5128695;27;19926;-71
2022/10/14 05:18:28;;;;;;;;;;;12.10;99.90;;;;;;5146291;27;19972;-71
2022/10/14 05:20:57;;;;;;;;;;;12.10;99.90;;;;;;5146460;27;19962;-71
2022/10/14 05:23:24;;;;;;;;;;;12.00;99.90;;;;;;5146214;27;19926;-71
2022/10/14 05:25:51;;;;;;;;;;;12.00;99.90;;;;;;5145866;27;19982;-71
2022/10/14 05:28:19;;;;;;;;;;;12.00;99.90;;;;;;5145851;27;20203;-70
2022/10/14 05:30:46;;;;;;;;;;;12.00;99.90;;;;;;5145057;27;19920;-70
2022/10/14 05:33:12;;;;;;;;;;;12.00;99.90;;;;;;5125268;28;19966;-70
2022/10/14 05:35:39;;;;;;;;;;;12.00;99.90;;;;;;5125136;28;19920;-70
2022/10/14 05:38:06;;;;;;;;;;;12.00;99.90;;;;;;5125165;28;20214;-70
2022/10/14 05:40:34;;;;;;;;;;;12.00;99.90;;;;;;5139829;27;19919;-68
2022/10/14 05:43:00;;;;;;;;;;;12.00;99.90;;;;;;5145705;27;20100;-70
2022/10/14 05:45:28;;;;;;;;;;;12.00;99.90;;;;;;5145301;27;19926;-73
2022/10/14 05:47:55;;;;;;;;;;;12.00;99.90;;;;;;5138242;27;20090;-72
2022/10/14 05:50:27;;;;;;;;;;;12.00;99.90;;;;;;5123997;28;19926;-72
2022/10/14 05:52:54;;;;;;;;;;;12.00;99.90;;;;;;5125511;28;19920;-73
2022/10/14 05:55:21;;;;;;;;;;;12.00;99.90;;;;;;5124928;28;19955;-72
2022/10/14 05:57:47;;;;;;;;;;;12.10;99.90;;;;;;5125125;28;19982;-74
2022/10/14 06:00:16;;;;;;;;;;;12.00;99.90;;;;;;5125258;28;19942;-72
2022/10/14 06:02:44;;;;;;;;;;;12.10;99.90;;;;;;5124993;28;19934;-73
2022/10/14 06:05:10;;;;;;;;;;;12.10;99.90;;;;;;5124549;28;19919;-74
2022/10/14 06:07:37;;;;;;;;;;;12.10;99.90;;;;;;5125214;28;19919;-73
2022/10/14 06:10:04;;;;;;;;;;;12.10;99.90;;;;;;5124659;28;19919;-73
2022/10/14 06:12:31;;;;;;;;;;;12.20;99.90;;;;;;5125062;28;20008;-72
2022/10/14 06:15:05;;;;;;;;;;;12.20;99.90;;;;;;5124035;28;20115;-73
2022/10/14 06:17:32;;;;;;;;;;;12.20;99.90;;;;;;5121984;27;19923;-73
2022/10/14 06:20:00;;;;;;;;;;;12.20;99.90;;;;;;5145221;27;19958;-73
2022/10/14 06:22:27;;;;;;;;;;;12.20;99.90;;;;;;5145492;27;19990;-73
2022/10/14 06:25:00;;;;;;;;;;;12.20;99.90;;;;;;5144413;27;20203;-73
2022/10/14 06:27:27;;;;;;;;;;;12.20;99.90;;;;;;5145544;27;19919;-73
2022/10/14 06:29:54;;;;;;;;;;;12.20;99.90;;;;;;5145484;27;19941;-74
2022/10/14 06:32:20;;;;;;;;;;;12.20;99.90;;;;;;5145471;27;19919;-73
2022/10/14 06:34:47;;;;;;;;;;;12.20;99.90;;;;;;5138797;27;20162;-74
2022/10/14 06:37:15;;;;;;;;;;;12.30;99.90;;;;;;5124813;28;19920;-72
2022/10/14 06:39:43;;;;;;;;;;;12.30;99.90;;;;;;5124457;28;19919;-73
2022/10/14 06:42:10;;;;;;;;;;;12.30;99.90;;;;;;5124662;28;19920;-72
2022/10/14 06:44:37;;;;;;;;;;;12.30;99.90;;;;;;5124099;28;20289;-73
2022/10/14 06:47:03;;;;;;;;;;;12.30;99.90;;;;;;5124566;28;19991;-72
2022/10/14 06:49:30;;;;;;;;;;;12.40;99.90;;;;;;5124325;28;20110;-72
2022/10/14 06:51:56;;;;;;;;;;;12.40;99.90;;;;;;5124480;28;19995;-71
2022/10/14 06:54:24;;;;;;;;;;;12.40;99.90;;;;;;5124490;28;19923;-72
2022/10/14 06:56:51;;;;;;;;;;;12.50;99.90;;;;;;5125474;28;19926;-72
2022/10/14 06:59:18;;;;;;;;;;;12.50;99.90;;;;;;5137471;28;19927;-72
2022/10/14 07:01:45;;;;;;;;;;;12.50;99.90;;;;;;5146933;27;19968;-72
2022/10/14 07:04:11;;;;;;;;;;;12.60;99.90;;;;;;5149370;27;19955;-72
2022/10/14 07:06:38;;;;;;;;;;;12.60;99.90;;;;;;5148977;27;20176;-71
2022/10/14 07:09:05;;;;;;;;;;;12.70;99.90;;;;;;5144679;27;19926;-72
2022/10/14 07:11:32;;;;;;;;;;;12.70;99.90;;;;;;5128043;28;19920;-73
2022/10/14 07:13:59;;;;;;;;;;;12.70;99.90;;;;;;5128166;28;19926;-72
2022/10/14 07:16:27;;;;;;;;;;;12.80;99.90;;;;;;5128377;28;19987;-73
2022/10/14 07:18:53;;;;;;;;;;;12.80;99.90;;;;;;5132630;27;19947;-72
2022/10/14 07:21:20;;;;;;;;;;;12.80;99.90;;;;;;5134290;27;19919;-72
2022/10/14 07:23:46;;;;;;;;;;;12.80;99.90;;;;;;5135764;27;19990;-72
2022/10/14 07:26:13;;;;;;;;;;;12.90;99.90;;;;;;5135943;27;20282;-73
2022/10/14 07:28:41;;;;;;;;;;;12.90;99.90;;;;;;5148863;27;19982;-73
2022/10/14 07:31:09;;;;;;;;;;;12.90;99.90;;;;;;5148830;27;19919;-72
2022/10/14 07:33:36;;;;;;;;;;;12.90;99.90;;;;;;5148762;27;19928;-72
2022/10/14 07:36:02;;;;;;;;;;;12.90;99.90;;;;;;5133477;27;19920;-72
2022/10/14 07:38:29;;;;;;;;;;;12.90;99.90;;;;;;5126243;28;19984;-75
2022/10/14 07:40:59;;;;;;;;;;;12.90;99.90;;;;;;5143095;27;19919;-72
2022/10/14 07:43:26;;;;;;;;;;;13.00;99.90;;;;;;5148504;27;19982;-71
2022/10/14 07:45:59;;;;;;;;;;;13.00;99.90;;;;;;5147951;27;20203;-73
2022/10/14 07:48:26;;;;;;;;;;;13.00;99.90;;;;;;5148591;27;19960;-71
2022/10/14 07:50:53;;;;;;;;;;;13.10;99.90;;;;;;5148178;27;19919;-71
2022/10/14 07:53:19;;;;;;;;;;;13.10;99.90;;;;;;5148154;27;20221;-72
2022/10/14 07:55:51;;;;;;;;;;;13.20;99.90;;;;;;5147995;27;19987;-71
2022/10/14 07:58:18;;;;;;;;;;;13.20;99.90;;;;;;5148831;27;20110;-73
2022/10/14 08:00:45;;;;;;;;;;;13.30;99.90;;;;;;5148356;27;19919;-72
2022/10/14 08:03:13;;;;;;;;;;;13.30;99.90;;;;;;5147949;27;19951;-72
2022/10/14 08:05:40;;;;;;;;;;;13.40;99.90;;;;;;5147910;27;19990;-72
2022/10/14 08:08:07;;;;;;;;;;;13.40;99.90;;;;;;5148038;27;19926;-73
2022/10/14 08:10:34;;;;;;;;;;;13.50;99.90;;;;;;5148000;27;19920;-71
2022/10/14 08:13:00;;;;;;;;;;;13.50;99.90;;;;;;5142488;27;20004;-72
2022/10/14 08:15:29;;;;;;;;;;;13.60;99.90;;;;;;5127376;28;20245;-76
2022/10/14 08:17:55;;;;;;;;;;;13.60;99.90;;;;;;5127842;28;19924;-72
2022/10/14 08:20:23;;;;;;;;;;;13.70;99.90;;;;;;5127135;28;20006;-73
2022/10/14 08:22:50;;;;;;;;;;;13.70;99.90;;;;;;5126900;28;19920;-72
2022/10/14 08:25:16;;;;;;;;;;;13.80;99.90;;;;;;5126878;28;19926;-72
2022/10/14 08:27:43;;;;;;;;;;;13.80;99.90;;;;;;5127308;28;19972;-73
2022/10/14 08:30:10;;;;;;;;;;;13.90;99.90;;;;;;5127094;28;19920;-73
2022/10/14 08:32:37;;;;;;;;;;;13.90;99.90;;;;;;5127016;28;19986;-72
2022/10/14 08:35:04;;;;;;;;;;;14.00;99.90;;;;;;5126438;28;20282;-73
2022/10/14 08:37:32;;;;;;;;;;;14.00;99.90;;;;;;5127067;28;19995;-72
2022/10/14 08:39:58;;;;;;;;;;;14.10;99.90;;;;;;5126602;28;19919;-72
2022/10/14 08:42:37;;;;;;;;;;;14.10;99.90;;;;;;5145453;27;19957;-72
2022/10/14 08:45:07;;;;;;;;;;;14.20;99.90;;;;;;5147106;27;20180;-73
2022/10/14 08:47:35;;;;;;;;;;;14.30;99.90;;;;;;5147349;27;19919;-72
2022/10/14 08:50:04;;;;;;;;;;;14.30;99.90;;;;;;5147496;27;20118;-73
2022/10/14 08:52:36;;;;;;;;;;;14.30;99.90;;;;;;5146971;27;20092;-72
2022/10/14 08:55:04;;;;;;;;;;;14.30;99.90;;;;;;5146742;27;19976;-72
2022/10/14 08:57:35;;;;;;;;;;;14.40;99.90;;;;;;5147167;27;19987;-71
2022/10/14 09:00:02;;;;;;;;;;;14.50;99.90;;;;;;5147152;27;19919;-72
2022/10/14 09:02:34;;;;;;;;;;;14.50;99.90;;;;;;5146821;27;19919;-72
2022/10/14 09:05:01;;;;;;;;;;;14.60;99.90;;;;;;5146759;27;19919;-72
2022/10/14 09:07:28;;;;;;;;;;;14.60;99.90;;;;;;5146968;27;19920;-72
2022/10/14 09:10:00;;;;;;;;;;;14.70;99.90;;;;;;5146966;27;19920;-72
2022/10/14 09:12:28;;;;;;;;;;;14.70;99.90;;;;;;5147389;27;19975;-72
2022/10/14 09:15:00;;;;;;;;;;;14.80;99.90;;;;;;5131659;27;20164;-72
2022/10/14 09:17:28;;;;;;;;;;;14.90;99.90;;;;;;5126486;28;19987;-72
2022/10/14 09:19:57;;;;;;;;;;;14.90;99.90;;;;;;5136608;27;19926;-73
2022/10/14 09:22:24;;;;;;;;;;;15.00;99.90;;;;;;5146517;27;19920;-72
2022/10/14 09:24:50;;;;;;;;;;;14.90;99.90;;;;;;5145716;27;20363;-72
2022/10/14 09:27:20;;;;;;;;;;;15.00;99.90;;;;;;5146562;27;19925;-72
2022/10/14 09:29:47;;;;;;;;;;;15.00;99.90;;;;;;5146616;27;19919;-72
2022/10/14 09:32:16;;;;;;;;;;;15.00;99.90;;;;;;5146484;27;20110;-73
2022/10/14 09:34:45;;;;;;;;;;;15.10;99.90;;;;;;5145941;27;19986;-72
2022/10/14 09:37:20;;;;;;;;;;;15.10;99.90;;;;;;5128568;27;19926;-72
2022/10/14 09:39:47;;;;;;;;;;;15.10;99.90;;;;;;5125484;28;19961;-73
2022/10/14 09:42:17;;;;;;;;;;;15.20;99.90;;;;;;5125641;28;19919;-73
2022/10/14 09:45:02;;;;;;;;;;;15.20;99.90;;;;;;5125731;28;19920;-73
2022/10/14 09:47:29;;;;;;;;;;;15.20;99.90;;;;;;5125568;28;19920;-72
2022/10/14 09:49:58;;;;;;;;;;;15.20;99.90;;;;;;5130793;27;19933;-73
2022/10/14 09:52:25;;;;;;;;;;;15.30;99.90;;;;;;5146111;27;19919;-73
2022/10/14 09:54:53;;;;;;;;;;;15.30;99.90;;;;;;5145730;27;19919;-72
2022/10/14 09:57:20;;;;;;;;;;;15.40;99.90;;;;;;5145950;27;19919;-72
2022/10/14 09:59:50;;;;;;;;;;;15.50;99.90;;;;;;5145791;27;19920;-72
2022/10/14 10:02:21;;;;;;;;;;;15.50;99.90;;;;;;5145828;27;19978;-72
2022/10/14 10:04:48;;;;;;;;;;;15.60;99.90;;;;;;5135309;27;19920;-72
2022/10/14 10:07:25;;;;;;;;;;;15.70;99.90;;;;;;5124798;28;20237;-72
2022/10/14 10:09:53;;;;;;;;;;;15.70;99.90;;;;;;5125281;28;19919;-72
2022/10/14 10:12:22;;;;;;;;;;;15.80;99.90;;;;;;5124720;28;20229;-73
2022/10/14 10:14:57;;;;;;;;;;;15.80;99.90;;;;;;5124604;28;20232;-73
2022/10/14 10:17:25;;;;;;;;;;;15.80;99.90;;;;;;5124910;28;19961;-73
2022/10/14 10:20:05;;;;;;;;;;;15.90;99.90;;;;;;5125047;28;19927;-73
2022/10/14 10:22:35;;;;;;;;;;;15.90;99.90;;;;;;5124800;28;20122;-72
2022/10/14 10:25:19;;;;;;;;;;;16.00;99.90;;;;;;5124674;28;20088;-73
2022/10/14 10:27:46;;;;;;;;;;;16.00;99.90;;;;;;5124703;28;19965;-72
2022/10/14 10:30:22;;;;;;;;;;;16.10;99.90;;;;;;5124595;28;20203;-73
2022/10/14 10:32:53;;;;;;;;;;;16.20;99.90;;;;;;5124737;28;19983;-72
2022/10/14 10:35:22;;;;;;;;;;;16.30;99.90;;;;;;5123862;28;19920;-73
2022/10/14 10:37:55;;;;;;;;;;;16.30;99.90;;;;;;5124476;28;19927;-72
2022/10/14 10:40:30;;;;;;;;;;;16.40;99.90;;;;;;5124470;28;19951;-73
2022/10/14 10:43:03;;;;;;;;;;;16.50;99.90;;;;;;5124354;28;20203;-73
2022/10/14 10:45:38;;;;;;;;;;;16.50;99.90;;;;;;5124550;27;19926;-76
2022/10/14 10:48:08;;;;;;;;;;;16.60;99.90;;;;;;5137363;27;19969;-74
2022/10/14 10:50:41;;;;;;;;;;;16.70;99.90;;;;;;5146338;27;19959;-73
2022/10/14 10:53:38;;;;;;;;;;;16.70;99.90;;;;;;5144840;28;19965;-73
2022/10/14 10:56:14;;;;;;;;;;;16.70;99.90;;;;;;5079185;28;19928;-73
2022/10/14 10:58:43;;;;;;;;;;;16.70;99.90;;;;;;5118556;28;19927;-73
2022/10/14 11:01:20;;;;;;;;;;;16.70;99.90;;;;;;5134680;28;20103;-73
2022/10/14 11:03:55;;;;;;;;;;;16.70;99.90;;;;;;5144843;27;19920;-73
2022/10/14 11:12:11;;;;;;;;;;;16.70;99.90;;;;;;5144548;28;19926;-73
2022/10/14 11:14:49;;;;;;;;;;;16.60;99.90;;;;;;5123825;28;19990;-72
2022/10/14 11:17:23;;;;;;;;;;;16.50;99.90;;;;;;5143359;27;19919;-73
2022/10/14 11:19:52;;;;;;;;;;;16.50;99.90;;;;;;5143737;28;19920;-73
2022/10/14 11:22:27;;;;;;;;;;;16.50;99.90;;;;;;5144638;28;19926;-73
2022/10/14 11:24:59;;;;;;;;;;;16.50;99.90;;;;;;5143189;28;20235;-73
2022/10/14 11:27:29;;;;;;;;;;;16.50;99.90;;;;;;5141886;28;19927;-72
2022/10/14 11:30:05;;;;;;;;;;;16.50;99.90;;;;;;5144268;28;19983;-74
2022/10/14 11:32:38;;;;;;;;;;;16.60;99.90;;;;;;5144283;28;19919;-73
2022/10/14 11:35:15;;;;;;;;;;;16.60;99.90;;;;;;5143739;28;19920;-74
2022/10/14 11:37:50;;;;;;;;;;;16.60;99.90;;;;;;5144336;28;20207;-73
2022/10/14 11:40:22;;;;;;;;;;;16.60;99.90;;;;;;5143470;28;20107;-74
2022/10/14 11:42:53;;;;;;;;;;;16.60;99.90;;;;;;5144327;28;20199;-74
2022/10/14 11:45:28;;;;;;;;;;;16.60;99.90;;;;;;5144492;28;20097;-74
2022/10/14 11:47:59;;;;;;;;;;;16.60;99.90;;;;;;5135762;27;19986;-74
2022/10/14 11:50:27;;;;;;;;;;;16.50;99.90;;;;;;5127348;28;19927;-74
2022/10/14 11:52:57;;;;;;;;;;;16.60;99.90;;;;;;5127862;28;19920;-73
2022/10/14 11:55:27;;;;;;;;;;;16.50;99.90;;;;;;5127581;28;19919;-70
2022/10/14 11:57:57;;;;;;;;;;;16.50;99.90;;;;;;5127627;28;19926;-71
2022/10/14 12:00:25;;;;;;;;;;;16.60;99.90;;;;;;5127494;28;19920;-72
2022/10/14 12:02:55;;;;;;;;;;;16.60;99.90;;;;;;5127202;28;19920;-72
2022/10/14 12:05:25;;;;;;;;;;;16.50;99.90;;;;;;5127120;28;19928;-71
2022/10/14 12:07:58;;;;;;;;;;;16.40;99.90;;;;;;5141948;27;19919;-71
2022/10/14 12:10:28;;;;;;;;;;;16.40;99.90;;;;;;5147035;27;19925;-71
2022/10/14 12:12:55;;;;;;;;;;;16.30;99.90;;;;;;5147591;27;19920;-72
2022/10/14 12:15:23;;;;;;;;;;;16.30;99.90;;;;;;5147615;27;19926;-72
2022/10/14 12:17:53;;;;;;;;;;;16.30;99.90;;;;;;5147283;27;19919;-73
2022/10/14 12:20:25;;;;;;;;;;;16.30;99.90;;;;;;5147447;27;19944;-71
2022/10/14 12:22:54;;;;;;;;;;;16.40;99.90;;;;;;5147257;27;20402;-72
2022/10/14 12:25:23;;;;;;;;;;;16.30;99.90;;;;;;5141873;27;19959;-71
2022/10/14 12:27:51;;;;;;;;;;;16.30;99.90;;;;;;5138711;27;20173;-72
2022/10/14 12:30:32;;;;;;;;;;;16.30;99.90;;;;;;5147756;27;20137;-72
2022/10/14 12:33:00;;;;;;;;;;;16.40;99.90;;;;;;5145420;27;19982;-72
2022/10/14 12:35:45;;;;;;;;;;;16.40;99.90;;;;;;5126593;28;19957;-73
2022/10/14 12:38:13;;;;;;;;;;;16.50;99.90;;;;;;5127003;28;19920;-71
2022/10/14 12:40:40;;;;;;;;;;;16.50;99.90;;;;;;5126625;28;19926;-71
2022/10/14 12:43:14;;;;;;;;;;;16.60;99.90;;;;;;5137516;27;19983;-72
2022/10/14 12:45:47;;;;;;;;;;;16.70;99.90;;;;;;5147205;27;19925;-72
2022/10/14 12:48:17;;;;;;;;;;;16.90;99.90;;;;;;5133915;27;19986;-72
2022/10/14 12:50:48;;;;;;;;;;;17.00;99.90;;;;;;5134450;27;19928;-73
2022/10/14 12:53:23;;;;;;;;;;;17.10;99.90;;;;;;5145242;27;19919;-73
2022/10/14 12:55:51;;;;;;;;;;;17.20;99.90;;;;;;5134026;27;20237;-71
2022/10/14 12:58:23;;;;;;;;;;;17.30;99.90;;;;;;5146837;27;19920;-73
2022/10/14 13:00:54;;;;;;;;;;;17.40;99.90;;;;;;5128492;27;19926;-71
2022/10/14 13:03:25;;;;;;;;;;;17.50;99.90;;;;;;5145949;27;19919;-72
2022/10/14 13:05:51;;;;;;;;;;;17.30;99.90;;;;;;5146482;27;19920;-72
2022/10/14 13:08:28;;;;;;;;;;;17.30;99.90;;;;;;5146293;27;19994;-73
2022/10/14 13:11:18;;;;;;;;;;;17.20;99.90;;;;;;5146324;27;19926;-72
2022/10/14 13:14:01;;;;;;;;;;;17.20;99.90;;;;;;5130500;27;19926;-73
2022/10/14 13:16:46;;;;;;;;;;;17.10;99.90;;;;;;5146400;27;19919;-73
2022/10/14 13:19:36;;;;;;;;;;;17.10;99.90;;;;;;5140892;27;20161;-74
2022/10/14 13:22:04;;;;;;;;;;;17.10;99.90;;;;;;5141504;27;19943;-72
2022/10/14 13:24:34;;;;;;;;;;;17.10;99.90;;;;;;5146098;27;20237;-73
2022/10/14 13:27:05;;;;;;;;;;;17.10;99.90;;;;;;5151820;27;19919;-73
2022/10/14 13:29:37;;;;;;;;;;;17.00;99.90;;;;;;5142167;27;19920;-72
2022/10/14 13:32:08;;;;;;;;;;;17.00;99.90;;;;;;5124968;28;19920;-72
2022/10/14 13:34:42;;;;;;;;;;;16.90;99.90;;;;;;5125138;28;19926;-72
2022/10/14 13:37:29;;;;;;;;;;;16.90;99.90;;;;;;5131069;27;19919;-71
2022/10/14 13:39:58;;;;;;;;;;;16.90;99.90;;;;;;5145964;27;19919;-71
2022/10/14 13:42:26;;;;;;;;;;;16.90;99.90;;;;;;5145737;27;20278;-71
2022/10/14 13:44:54;;;;;;;;;;;16.90;99.90;;;;;;5145527;27;19926;-72
2022/10/14 13:47:21;;;;;;;;;;;16.80;99.90;;;;;;5139678;27;19990;-70
2022/10/14 13:49:49;;;;;;;;;;;16.90;99.90;;;;;;5125487;28;19928;-71
2022/10/14 13:52:17;;;;;;;;;;;16.80;99.90;;;;;;5124948;28;19927;-73
2022/10/14 13:54:44;;;;;;;;;;;16.80;99.90;;;;;;5124840;28;19926;-72
2022/10/14 13:57:13;;;;;;;;;;;16.80;99.90;;;;;;5125336;28;19939;-70
2022/10/14 13:59:43;;;;;;;;;;;16.80;99.90;;;;;;5142156;27;20254;-70
2022/10/14 14:02:13;;;;;;;;;;;16.80;99.90;;;;;;5145033;27;19920;-71
2022/10/14 14:04:39;;;;;;;;;;;16.80;99.90;;;;;;5124148;28;19920;-71
2022/10/14 14:07:06;;;;;;;;;;;16.80;99.90;;;;;;5124718;28;19926;-71
2022/10/14 14:09:33;;;;;;;;;;;16.80;99.90;;;;;;5136446;27;20267;-72
2022/10/14 14:12:02;;;;;;;;;;;16.80;99.90;;;;;;5145232;27;19920;-70
2022/10/14 14:14:34;;;;;;;;;;;16.80;99.90;;;;;;5155936;27;20015;-70
2022/10/14 14:17:01;;;;;;;;;;;16.80;99.90;;;;;;5141373;27;19920;-70
2022/10/14 14:19:29;;;;;;;;;;;16.80;99.90;;;;;;5145517;27;19982;-70
2022/10/14 14:22:05;;;;;;;;;;;16.80;99.90;;;;;;5140588;27;19920;-72
2022/10/14 14:24:33;;;;;;;;;;;16.70;99.90;;;;;;5143851;27;19919;-70
2022/10/14 14:26:59;;;;;;;;;;;16.70;99.90;;;;;;5143222;27;20253;-70
2022/10/14 14:29:28;;;;;;;;;;;16.70;99.90;;;;;;5144202;27;19966;-70
2022/10/14 14:31:56;;;;;;;;;;;16.60;99.90;;;;;;5144038;27;19920;-70
2022/10/14 14:34:23;;;;;;;;;;;16.60;99.90;;;;;;5133026;27;19957;-75